createdAt,value
2019-02-28T00:00:24.309Z,14.80
2019-02-28T00:01:24.300Z,15.39
2019-02-28T00:02:24.283Z,17.00
2019-02-28T00:03:26.233Z,14.50
2019-02-28T00:04:24.262Z,15.50
2019-02-28T00:05:24.254Z,13.60
2019-02-28T00:06:24.245Z,15.60
2019-02-28T00:07:24.233Z,17.20
2019-02-28T00:08:24.222Z,15.80
2019-02-28T00:09:25.739Z,16.50
2019-02-28T00:10:24.264Z,15.89
2019-02-28T00:11:24.178Z,14.89
2019-02-28T00:12:24.164Z,16.89
2019-02-28T00:13:24.164Z,15.89
2019-02-28T00:14:24.153Z,17.10
2019-02-28T00:15:24.192Z,15.19
2019-02-28T00:16:24.123Z,15.80
2019-02-28T00:17:24.112Z,18.00
2019-02-28T00:18:24.100Z,19.00
2019-02-28T00:19:24.602Z,16.60
2019-02-28T00:20:24.086Z,17.60
2019-02-28T00:21:24.106Z,19.00
2019-02-28T00:22:24.069Z,17.79
2019-02-28T00:23:24.104Z,17.00
2019-02-28T00:24:24.034Z,18.79
2019-02-28T00:25:24.055Z,17.60
2019-02-28T00:26:24.012Z,17.20
2019-02-28T00:27:24.010Z,16.00
2019-02-28T00:28:25.789Z,18.39
2019-02-28T00:29:23.984Z,15.89
2019-02-28T00:30:24.061Z,18.39
2019-02-28T00:31:23.964Z,22.60
2019-02-28T00:32:24.755Z,17.50
2019-02-28T00:33:23.935Z,16.79
2019-02-28T00:34:23.923Z,17.29
2019-02-28T00:35:24.028Z,16.60
2019-02-28T00:36:23.908Z,19.50
2019-02-28T00:37:24.679Z,14.80
2019-02-28T00:38:23.939Z,17.29
2019-02-28T00:39:23.883Z,17.70
2019-02-28T00:40:23.938Z,18.00
2019-02-28T00:41:23.856Z,17.20
2019-02-28T00:42:26.208Z,18.50
2019-02-28T00:43:25.146Z,19.10
2019-02-28T00:44:23.864Z,17.60
2019-02-28T00:45:23.823Z,19.00
2019-02-28T00:46:23.804Z,18.79
2019-02-28T00:47:23.872Z,19.50
2019-02-28T00:48:23.767Z,17.00
2019-02-28T00:49:24.476Z,17.89
2019-02-28T00:50:23.752Z,16.89
2019-02-28T00:51:23.740Z,18.60
2019-02-28T00:52:23.870Z,19.50
2019-02-28T00:53:23.724Z,18.89
2019-02-28T00:54:23.707Z,19.39
2019-02-28T00:55:23.747Z,17.79
2019-02-28T00:56:23.684Z,18.70
2019-02-28T00:57:24.622Z,20.39
2019-02-28T00:58:28.589Z,19.70
2019-02-28T00:59:23.644Z,19.79
2019-02-28T01:00:23.641Z,18.89
2019-02-28T01:01:23.635Z,19.29
2019-02-28T01:02:23.702Z,19.39
2019-02-28T01:03:26.482Z,20.60
2019-02-28T01:04:23.588Z,19.00
2019-02-28T01:05:23.592Z,20.60
2019-02-28T01:06:23.578Z,19.60
2019-02-28T01:07:23.585Z,18.39
2019-02-28T01:08:23.542Z,19.00
2019-02-28T01:09:23.544Z,20.20
2019-02-28T01:10:23.526Z,20.10
2019-02-28T01:11:23.512Z,20.20
2019-02-28T01:12:23.506Z,19.20
2019-02-28T01:13:27.326Z,20.60
2019-02-28T01:14:23.482Z,18.89
2019-02-28T01:15:23.463Z,20.39
2019-02-28T01:16:23.517Z,20.20
2019-02-28T01:17:24.005Z,19.79
2019-02-28T01:18:23.443Z,20.50
2019-02-28T01:19:23.427Z,20.10
2019-02-28T01:20:23.426Z,19.00
2019-02-28T01:21:24.023Z,18.29
2019-02-28T01:22:26.828Z,19.29
2019-02-28T01:23:23.411Z,19.89
2019-02-28T01:24:23.377Z,18.70
2019-02-28T01:25:23.350Z,18.00
2019-02-28T01:26:23.453Z,20.20
2019-02-28T01:27:23.373Z,22.20
2019-02-28T01:28:26.753Z,19.00
2019-02-28T01:29:23.315Z,20.20
2019-02-28T01:30:23.335Z,19.10
2019-02-28T01:31:23.290Z,22.00
2019-02-28T01:32:23.291Z,22.10
2019-02-28T01:33:25.010Z,18.50
2019-02-28T01:34:23.354Z,22.00
2019-02-28T01:35:23.249Z,22.60
2019-02-28T01:36:23.241Z,19.89
2019-02-28T01:37:23.352Z,19.89
2019-02-28T01:38:24.231Z,20.50
2019-02-28T01:39:23.209Z,18.79
2019-02-28T01:40:23.210Z,19.50
2019-02-28T01:41:23.179Z,18.20
2019-02-28T01:42:23.175Z,18.89
2019-02-28T01:43:28.379Z,21.60
2019-02-28T01:44:23.152Z,19.89
2019-02-28T01:45:23.196Z,20.00
2019-02-28T01:46:23.124Z,20.89
2019-02-28T01:47:23.110Z,21.10
2019-02-28T01:48:23.737Z,22.00
2019-02-28T01:49:26.035Z,18.50
2019-02-28T01:50:23.168Z,19.79
2019-02-28T01:51:23.101Z,23.20
2019-02-28T01:52:23.079Z,22.70
2019-02-28T01:53:23.044Z,20.00
2019-02-28T01:54:27.277Z,21.10
2019-02-28T01:55:23.024Z,20.70
2019-02-28T01:56:23.037Z,20.10
2019-02-28T01:57:23.016Z,19.10
2019-02-28T01:58:23.003Z,22.70
2019-02-28T01:59:22.980Z,20.60
2019-02-28T02:00:23.774Z,20.70
2019-02-28T02:01:22.962Z,22.60
2019-02-28T02:02:23.021Z,21.89
2019-02-28T02:03:22.933Z,21.89
2019-02-28T02:04:22.932Z,21.60
2019-02-28T02:05:22.925Z,22.50
2019-02-28T02:06:25.749Z,21.39
2019-02-28T02:07:22.889Z,21.50
2019-02-28T02:08:22.932Z,19.60
2019-02-28T02:09:22.873Z,20.00
2019-02-28T02:10:22.880Z,22.29
2019-02-28T02:11:22.855Z,24.39
2019-02-28T02:12:22.847Z,22.60
2019-02-28T02:13:22.833Z,19.70
2019-02-28T02:14:22.817Z,19.50
2019-02-28T02:15:22.806Z,21.00
2019-02-28T02:16:26.661Z,23.70
2019-02-28T02:17:22.928Z,23.50
2019-02-28T02:18:22.771Z,20.29
2019-02-28T02:19:22.757Z,22.60
2019-02-28T02:20:23.474Z,23.39
2019-02-28T02:21:22.744Z,22.20
2019-02-28T02:22:22.725Z,21.29
2019-02-28T02:23:22.737Z,19.70
2019-02-28T02:24:27.426Z,22.29
2019-02-28T02:25:22.708Z,21.39
2019-02-28T02:26:22.684Z,21.39
2019-02-28T02:27:22.744Z,21.50
2019-02-28T02:28:26.907Z,22.20
2019-02-28T02:29:22.669Z,25.70
2019-02-28T02:30:22.653Z,21.00
2019-02-28T02:31:27.618Z,23.60
2019-02-28T02:32:47.877Z,27.20
2019-02-28T02:33:52.369Z,25.00
2019-02-28T02:34:47.831Z,23.00
2019-02-28T02:35:47.828Z,25.89
2019-02-28T02:36:53.135Z,22.79
2019-02-28T02:38:12.633Z,19.79
2019-02-28T02:39:16.394Z,21.70
2019-02-28T02:40:12.638Z,22.60
2019-02-28T02:41:12.603Z,22.39
2019-02-28T02:42:12.591Z,22.29
2019-02-28T02:43:12.599Z,24.79
2019-02-28T02:44:12.575Z,22.50
2019-02-28T02:45:12.561Z,23.39
2019-02-28T02:46:19.745Z,25.60
2019-02-28T02:47:37.672Z,28.50
2019-02-28T02:48:38.540Z,24.79
2019-02-28T02:49:37.647Z,24.79
2019-02-28T02:50:37.634Z,23.29
2019-02-28T02:51:37.625Z,23.39
2019-02-28T02:52:37.625Z,23.39
2019-02-28T02:53:42.195Z,25.60
2019-02-28T02:54:37.598Z,25.00
2019-02-28T02:55:37.580Z,24.29
2019-02-28T02:56:41.972Z,24.29
2019-02-28T02:57:37.574Z,25.50
2019-02-28T02:58:37.545Z,24.79
2019-02-28T02:59:39.286Z,26.60
2019-02-28T03:00:37.541Z,26.89
2019-02-28T03:01:37.523Z,24.50
2019-02-28T03:02:37.517Z,25.89
2019-02-28T03:03:42.814Z,26.00
2019-02-28T03:05:02.684Z,27.50
2019-02-28T03:06:02.675Z,28.10
2019-02-28T03:07:02.645Z,30.10
2019-02-28T03:08:02.642Z,26.89
2019-02-28T03:09:02.627Z,28.00
2019-02-28T03:10:02.630Z,23.60
2019-02-28T03:11:02.668Z,26.10
2019-02-28T03:12:02.670Z,26.29
2019-02-28T03:13:04.813Z,27.10
2019-02-28T03:14:02.573Z,27.29
2019-02-28T03:15:02.559Z,31.20
2019-02-28T03:16:02.571Z,26.29
2019-02-28T03:17:09.695Z,27.89
2019-02-28T03:18:27.663Z,26.79
2019-02-28T03:19:33.179Z,27.50
2019-02-28T03:20:52.679Z,28.20
2019-02-28T03:21:53.053Z,30.00
2019-02-28T03:22:52.748Z,31.89
2019-02-28T03:23:52.650Z,31.89
2019-02-28T03:24:52.635Z,27.70
2019-02-28T03:25:52.616Z,29.29
2019-02-28T03:26:52.623Z,25.60
2019-02-28T03:27:56.361Z,29.50
2019-02-28T03:28:52.598Z,29.79
2019-02-28T03:29:52.578Z,30.79
2019-02-28T03:30:52.575Z,29.89
2019-02-28T03:31:56.755Z,31.00
2019-02-28T03:33:27.183Z,29.89
2019-02-28T03:34:54.992Z,28.39
2019-02-28T03:36:07.796Z,28.10
2019-02-28T03:37:07.655Z,31.20
2019-02-28T03:38:11.639Z,31.29
2019-02-28T03:39:07.629Z,29.50
2019-02-28T03:40:07.622Z,34.29
2019-02-28T03:41:07.610Z,29.29
2019-02-28T03:42:07.616Z,30.29
2019-02-28T03:43:07.702Z,29.70
2019-02-28T03:44:07.575Z,29.50
2019-02-28T03:45:07.648Z,33.59
2019-02-28T03:46:10.197Z,32.59
2019-02-28T03:47:07.549Z,32.20
2019-02-28T03:48:07.535Z,32.00
2019-02-28T03:49:11.460Z,32.09
2019-02-28T03:50:07.543Z,33.79
2019-02-28T03:51:07.506Z,33.00
2019-02-28T03:52:07.496Z,31.20
2019-02-28T03:53:07.477Z,33.00
2019-02-28T03:54:07.507Z,32.79
2019-02-28T03:55:07.460Z,30.50
2019-02-28T03:56:07.462Z,30.89
2019-02-28T03:57:07.455Z,32.09
2019-02-28T03:58:07.423Z,33.20
2019-02-28T03:59:07.410Z,32.70
2019-02-28T04:00:07.398Z,31.50
2019-02-28T04:01:09.443Z,30.29
2019-02-28T04:02:07.375Z,34.70
2019-02-28T04:03:07.428Z,28.29
2019-02-28T04:04:12.235Z,32.29
2019-02-28T04:05:07.409Z,31.70
2019-02-28T04:06:07.350Z,31.50
2019-02-28T04:07:07.341Z,34.00
2019-02-28T04:08:07.315Z,33.79
2019-02-28T04:09:08.394Z,35.50
2019-02-28T04:10:07.290Z,36.29
2019-02-28T04:11:07.291Z,34.09
2019-02-28T04:12:08.819Z,33.29
2019-02-28T04:13:07.259Z,35.50
2019-02-28T04:14:07.314Z,33.90
2019-02-28T04:15:10.116Z,31.29
2019-02-28T04:16:09.469Z,33.50
2019-02-28T04:17:07.229Z,38.70
2019-02-28T04:18:08.474Z,38.70
2019-02-28T04:19:07.200Z,38.20
2019-02-28T04:20:07.190Z,37.20
2019-02-28T04:21:10.258Z,37.59
2019-02-28T04:22:07.165Z,37.09
2019-02-28T04:23:07.170Z,36.90
2019-02-28T04:24:12.436Z,35.40
2019-02-28T04:25:32.729Z,36.90
2019-02-28T04:26:32.712Z,35.00
2019-02-28T04:27:32.701Z,36.59
2019-02-28T04:28:32.698Z,37.09
2019-02-28T04:29:32.678Z,36.29
2019-02-28T04:30:32.664Z,37.09
2019-02-28T04:31:32.656Z,37.70
2019-02-28T04:32:32.636Z,35.40
2019-02-28T04:33:37.376Z,37.70
2019-02-28T04:34:57.794Z,44.50
2019-02-28T04:36:00.684Z,41.40
2019-02-28T04:36:57.774Z,36.50
2019-02-28T04:37:57.762Z,35.90
2019-02-28T04:38:57.762Z,37.20
2019-02-28T04:39:57.746Z,36.79
2019-02-28T04:40:58.793Z,39.20
2019-02-28T04:41:57.718Z,41.40
2019-02-28T04:42:57.706Z,39.00
2019-02-28T04:43:57.704Z,38.70
2019-02-28T04:44:57.687Z,42.90
2019-02-28T04:45:58.449Z,37.20
2019-02-28T04:46:57.664Z,37.90
2019-02-28T04:47:57.649Z,39.59
2019-02-28T04:48:57.651Z,40.20
2019-02-28T04:49:57.767Z,44.09
2019-02-28T04:50:57.621Z,41.09
2019-02-28T04:51:57.609Z,38.40
2019-02-28T04:52:57.609Z,37.59
2019-02-28T04:53:57.599Z,38.70
2019-02-28T04:54:59.417Z,43.09
2019-02-28T04:55:57.585Z,40.20
2019-02-28T04:56:57.622Z,41.50
2019-02-28T04:57:57.540Z,41.29
2019-02-28T04:58:59.551Z,41.20
2019-02-28T04:59:57.523Z,41.90
2019-02-28T05:00:57.541Z,44.50
2019-02-28T05:01:57.554Z,45.50
2019-02-28T05:02:57.487Z,47.90
2019-02-28T05:03:59.125Z,46.09
2019-02-28T05:04:57.459Z,42.90
2019-02-28T05:05:57.456Z,46.09
2019-02-28T05:06:57.448Z,48.00
2019-02-28T05:07:57.441Z,46.59
2019-02-28T05:08:57.427Z,46.00
2019-02-28T05:09:57.434Z,46.40
2019-02-28T05:10:57.405Z,48.79
2019-02-28T05:11:57.384Z,44.09
2019-02-28T05:12:57.485Z,46.09
2019-02-28T05:13:57.365Z,43.90
2019-02-28T05:14:58.145Z,48.79
2019-02-28T05:15:57.341Z,47.70
2019-02-28T05:16:57.393Z,49.70
2019-02-28T05:17:57.431Z,47.09
2019-02-28T05:18:58.213Z,47.00
2019-02-28T05:19:57.308Z,48.09
2019-02-28T05:20:57.293Z,52.59
2019-02-28T05:21:57.293Z,48.09
2019-02-28T05:22:59.293Z,49.40
2019-02-28T05:23:57.456Z,48.20
2019-02-28T05:24:57.259Z,47.09
2019-02-28T05:25:57.231Z,48.90
2019-02-28T05:27:00.074Z,53.00
2019-02-28T05:27:57.215Z,46.90
2019-02-28T05:28:57.214Z,50.20
2019-02-28T05:29:57.201Z,48.29
2019-02-28T05:30:57.237Z,51.59
2019-02-28T05:31:58.105Z,48.59
2019-02-28T05:34:23.740Z,48.09
2019-02-28T05:35:26.545Z,55.79
2019-02-28T05:36:22.727Z,52.20
2019-02-28T05:37:22.694Z,47.79
2019-02-28T05:38:22.715Z,46.79
2019-02-28T05:39:22.690Z,54.09
2019-02-28T05:40:22.690Z,48.00
2019-02-28T05:41:22.654Z,51.50
2019-02-28T05:42:23.323Z,50.59
2019-02-28T05:43:22.649Z,47.59
2019-02-28T05:44:22.653Z,51.79
2019-02-28T05:45:22.614Z,52.00
2019-02-28T05:46:23.770Z,49.59
2019-02-28T05:47:22.599Z,50.40
2019-02-28T05:48:22.575Z,51.79
2019-02-28T05:49:22.571Z,50.40
2019-02-28T05:50:22.573Z,50.40
2019-02-28T05:51:24.875Z,53.09
2019-02-28T05:52:22.565Z,52.79
2019-02-28T05:53:22.537Z,57.50
2019-02-28T05:54:22.509Z,51.20
2019-02-28T05:55:25.508Z,51.00
2019-02-28T05:56:22.496Z,52.90
2019-02-28T05:57:22.506Z,56.00
2019-02-28T05:58:22.557Z,53.00
2019-02-28T05:59:26.167Z,53.00
2019-02-28T06:00:22.461Z,53.90
2019-02-28T06:01:22.441Z,53.00
2019-02-28T06:02:23.345Z,54.90
2019-02-28T06:03:22.418Z,51.29
2019-02-28T06:04:22.413Z,55.70
2019-02-28T06:05:22.385Z,57.59
2019-02-28T06:06:22.381Z,52.79
2019-02-28T06:07:22.383Z,53.59
2019-02-28T06:08:22.368Z,52.09
2019-02-28T06:09:22.347Z,53.20
2019-02-28T06:10:24.735Z,52.79
2019-02-28T06:11:22.339Z,52.59
2019-02-28T06:12:22.338Z,55.79
2019-02-28T06:13:22.306Z,55.70
2019-02-28T06:14:26.649Z,51.90
2019-02-28T06:15:22.295Z,52.79
2019-02-28T06:16:22.269Z,52.90
2019-02-28T06:17:22.259Z,55.70
2019-02-28T06:18:22.258Z,55.40
2019-02-28T06:19:22.310Z,53.59
2019-02-28T06:20:22.238Z,53.79
2019-02-28T06:21:23.402Z,59.70
2019-02-28T06:22:22.212Z,56.59
2019-02-28T06:23:22.250Z,54.40
2019-02-28T06:24:22.185Z,53.50
2019-02-28T06:25:25.060Z,53.59
2019-02-28T06:26:22.165Z,53.00
2019-02-28T06:27:24.210Z,52.70
2019-02-28T06:28:22.137Z,52.40
2019-02-28T06:29:22.134Z,51.59
2019-02-28T06:30:35.489Z,55.79
2019-02-28T06:31:23.208Z,54.79
2019-02-28T06:32:23.740Z,54.90
2019-02-28T06:33:22.094Z,53.29
2019-02-28T06:34:22.080Z,54.59
2019-02-28T06:35:22.062Z,51.00
2019-02-28T06:36:22.082Z,51.40
2019-02-28T06:37:23.966Z,50.29
2019-02-28T06:38:22.121Z,51.70
2019-02-28T06:39:22.100Z,49.70
2019-02-28T06:40:22.006Z,50.79
2019-02-28T06:41:22.082Z,49.40
2019-02-28T06:42:21.993Z,47.00
2019-02-28T06:43:21.975Z,46.50
2019-02-28T06:44:24.191Z,46.20
2019-02-28T06:45:21.958Z,52.59
2019-02-28T06:46:21.939Z,49.59
2019-02-28T06:47:21.953Z,44.79
2019-02-28T06:48:25.925Z,48.09
2019-02-28T06:49:21.937Z,46.00
2019-02-28T06:50:21.900Z,48.59
2019-02-28T06:51:21.884Z,46.70
2019-02-28T06:52:22.261Z,46.70
2019-02-28T06:53:21.881Z,44.20
2019-02-28T06:54:21.852Z,39.29
2019-02-28T06:55:21.838Z,45.00
2019-02-28T06:56:22.504Z,41.90
2019-02-28T06:57:21.820Z,42.20
2019-02-28T06:58:21.810Z,43.59
2019-02-28T06:59:21.807Z,44.70
2019-02-28T07:00:23.663Z,46.70
2019-02-28T07:01:22.740Z,39.50
2019-02-28T07:02:22.758Z,42.59
2019-02-28T07:03:21.909Z,40.09
2019-02-28T07:04:21.756Z,43.09
2019-02-28T07:05:25.721Z,40.70
2019-02-28T07:06:21.842Z,41.90
2019-02-28T07:07:21.720Z,40.50
2019-02-28T07:08:24.721Z,43.50
2019-02-28T07:09:21.685Z,42.20
2019-02-28T07:10:21.787Z,39.09
2019-02-28T07:11:21.667Z,41.40
2019-02-28T07:12:21.671Z,40.40
2019-02-28T07:13:21.656Z,37.50
2019-02-28T07:14:21.633Z,39.29
2019-02-28T07:15:24.816Z,43.20
2019-02-28T07:16:21.623Z,39.50
2019-02-28T07:17:21.616Z,41.20
2019-02-28T07:18:21.597Z,40.00
2019-02-28T07:19:21.675Z,41.90
2019-02-28T07:20:21.706Z,42.90
2019-02-28T07:21:21.565Z,39.29
2019-02-28T07:22:21.550Z,39.70
2019-02-28T07:23:22.298Z,39.20
2019-02-28T07:24:21.534Z,40.59
2019-02-28T07:25:21.526Z,36.20
2019-02-28T07:26:21.530Z,40.00
2019-02-28T07:27:23.408Z,36.50
2019-02-28T07:28:21.521Z,38.59
2019-02-28T07:29:21.502Z,36.70
2019-02-28T07:30:21.466Z,40.00
2019-02-28T07:31:24.443Z,38.00
2019-02-28T07:32:23.893Z,36.90
2019-02-28T07:33:26.022Z,36.90
2019-02-28T07:34:23.882Z,38.00
2019-02-28T07:35:21.409Z,35.59
2019-02-28T07:36:21.462Z,41.79
2019-02-28T07:37:21.390Z,41.00
2019-02-28T07:38:21.365Z,37.29
2019-02-28T07:39:21.425Z,39.90
2019-02-28T07:40:21.369Z,37.40
2019-02-28T07:41:26.205Z,34.79
2019-02-28T07:42:21.339Z,34.59
2019-02-28T07:43:22.326Z,32.20
2019-02-28T07:44:22.297Z,36.09
2019-02-28T07:45:21.313Z,34.70
2019-02-28T07:46:21.299Z,38.50
2019-02-28T07:47:21.339Z,36.29
2019-02-28T07:48:26.814Z,33.70
2019-02-28T07:49:22.255Z,35.09
2019-02-28T07:50:21.315Z,35.09
2019-02-28T07:51:22.685Z,34.00
2019-02-28T07:52:21.228Z,32.59
2019-02-28T07:53:21.207Z,33.59
2019-02-28T07:54:21.207Z,32.79
2019-02-28T07:55:21.195Z,32.29
2019-02-28T07:56:21.190Z,28.89
2019-02-28T07:57:22.488Z,32.90
2019-02-28T07:58:21.162Z,33.79
2019-02-28T07:59:21.165Z,31.20
2019-02-28T08:00:21.141Z,33.20
2019-02-28T08:01:21.121Z,35.09
2019-02-28T08:02:21.107Z,32.00
2019-02-28T08:03:21.121Z,32.70
2019-02-28T08:04:21.093Z,33.20
2019-02-28T08:05:21.089Z,32.40
2019-02-28T08:06:21.084Z,34.90
2019-02-28T08:07:21.089Z,29.29
2019-02-28T08:08:23.376Z,34.00
2019-02-28T08:09:21.133Z,30.60
2019-02-28T08:10:21.030Z,35.59
2019-02-28T08:11:21.014Z,32.90
2019-02-28T08:12:21.069Z,34.29
2019-02-28T08:13:20.993Z,34.50
2019-02-28T08:14:20.979Z,29.89
2019-02-28T08:15:22.527Z,31.10
2019-02-28T08:16:20.964Z,35.40
2019-02-28T08:17:20.939Z,35.00
2019-02-28T08:18:20.942Z,31.00
2019-02-28T08:19:22.753Z,29.70
2019-02-28T08:20:20.918Z,31.89
2019-02-28T08:21:20.906Z,35.79
2019-02-28T08:22:24.240Z,30.29
2019-02-28T08:23:20.886Z,31.20
2019-02-28T08:24:20.870Z,32.29
2019-02-28T08:25:20.853Z,30.79
2019-02-28T08:26:25.237Z,31.70
2019-02-28T08:27:20.862Z,30.79
2019-02-28T08:28:20.820Z,29.60
2019-02-28T08:29:20.836Z,32.70
2019-02-28T08:30:20.837Z,34.00
2019-02-28T08:31:20.802Z,28.10
2019-02-28T08:32:20.820Z,31.10
2019-02-28T08:33:20.771Z,33.00
2019-02-28T08:34:23.871Z,30.79
2019-02-28T08:35:20.757Z,32.29
2019-02-28T08:36:20.791Z,29.00
2019-02-28T08:37:22.429Z,30.29
2019-02-28T08:38:20.717Z,32.40
2019-02-28T08:39:20.713Z,31.20
2019-02-28T08:40:20.698Z,29.50
2019-02-28T08:41:22.497Z,28.79
2019-02-28T08:42:20.668Z,31.89
2019-02-28T08:43:27.221Z,29.29
2019-02-28T08:44:23.818Z,29.79
2019-02-28T08:45:32.521Z,30.39
2019-02-28T08:46:21.642Z,32.70
2019-02-28T08:47:21.138Z,28.89
2019-02-28T08:48:20.620Z,32.09
2019-02-28T08:49:20.596Z,32.59
2019-02-28T08:50:23.339Z,31.10
2019-02-28T08:51:21.484Z,29.00
2019-02-28T08:52:20.560Z,29.50
2019-02-28T08:53:20.561Z,32.00
2019-02-28T08:54:26.092Z,31.00
2019-02-28T08:55:28.269Z,29.60
2019-02-28T08:56:21.522Z,30.00
2019-02-28T08:57:21.913Z,30.00
2019-02-28T08:58:20.492Z,28.29
2019-02-28T08:59:22.532Z,30.89
2019-02-28T09:00:20.465Z,32.70
2019-02-28T09:01:20.458Z,32.09
2019-02-28T09:02:20.459Z,31.10
2019-02-28T09:03:20.452Z,33.79
2019-02-28T09:04:20.435Z,33.29
2019-02-28T09:05:25.673Z,34.40
2019-02-28T09:06:20.418Z,33.40
2019-02-28T09:07:20.400Z,34.40
2019-02-28T09:08:22.405Z,32.40
2019-02-28T09:09:20.378Z,33.29
2019-02-28T09:10:20.396Z,34.50
2019-02-28T09:11:21.105Z,35.40
2019-02-28T09:12:20.342Z,33.50
2019-02-28T09:13:20.330Z,36.59
2019-02-28T09:14:20.332Z,35.50
2019-02-28T09:15:20.334Z,36.90
2019-02-28T09:16:20.314Z,33.40
2019-02-28T09:17:20.285Z,34.70
2019-02-28T09:18:20.276Z,33.79
2019-02-28T09:19:20.265Z,35.09
2019-02-28T09:20:20.258Z,35.79
2019-02-28T09:21:20.254Z,33.70
2019-02-28T09:22:20.258Z,36.20
2019-02-28T09:23:20.266Z,39.70
2019-02-28T09:24:20.210Z,39.00
2019-02-28T09:25:22.051Z,36.40
2019-02-28T09:26:20.184Z,35.70
2019-02-28T09:27:20.184Z,35.59
2019-02-28T09:28:20.902Z,38.59
2019-02-28T09:29:21.307Z,36.70
2019-02-28T09:30:20.139Z,37.20
2019-02-28T09:31:20.128Z,36.50
2019-02-28T09:32:20.131Z,36.40
2019-02-28T09:33:23.348Z,38.70
2019-02-28T09:34:20.098Z,35.50
2019-02-28T09:35:20.086Z,37.90
2019-02-28T09:36:20.884Z,37.00
2019-02-28T09:37:20.059Z,35.90
2019-02-28T09:38:20.135Z,37.70
2019-02-28T09:39:20.324Z,36.70
2019-02-28T09:40:20.030Z,38.70
2019-02-28T09:41:20.029Z,37.79
2019-02-28T09:42:20.031Z,40.29
2019-02-28T09:43:19.996Z,38.20
2019-02-28T09:44:20.011Z,37.79
2019-02-28T09:45:19.986Z,36.90
2019-02-28T09:46:20.045Z,37.40
2019-02-28T09:47:19.946Z,38.70
2019-02-28T09:48:19.941Z,36.79
2019-02-28T09:49:19.992Z,39.59
2019-02-28T09:50:22.559Z,36.70
2019-02-28T09:51:20.906Z,40.00
2019-02-28T09:52:19.893Z,40.00
2019-02-28T09:53:19.899Z,38.79
2019-02-28T09:54:21.436Z,38.29
2019-02-28T09:55:20.961Z,41.00
2019-02-28T09:56:19.854Z,41.59
2019-02-28T09:57:19.920Z,38.50
2019-02-28T09:58:19.825Z,36.59
2019-02-28T09:59:19.854Z,37.40
2019-02-28T10:00:20.121Z,37.59
2019-02-28T10:01:21.223Z,39.59
2019-02-28T10:02:19.800Z,37.59
2019-02-28T10:03:19.784Z,38.00
2019-02-28T10:04:19.773Z,37.50
2019-02-28T10:05:19.756Z,40.09
2019-02-28T10:06:19.745Z,38.29
2019-02-28T10:07:19.736Z,36.20
2019-02-28T10:08:21.707Z,38.40
2019-02-28T10:09:19.720Z,41.50
2019-02-28T10:10:20.853Z,39.70
2019-02-28T10:11:21.740Z,36.70
2019-02-28T10:12:19.830Z,34.59
2019-02-28T10:13:19.687Z,36.20
2019-02-28T10:14:19.663Z,36.09
2019-02-28T10:15:19.647Z,37.40
2019-02-28T10:16:19.634Z,39.40
2019-02-28T10:17:19.682Z,39.00
2019-02-28T10:18:19.617Z,35.90
2019-02-28T10:19:19.595Z,33.90
2019-02-28T10:20:19.584Z,39.50
2019-02-28T10:21:19.579Z,34.90
2019-02-28T10:22:19.586Z,34.09
2019-02-28T10:23:21.433Z,35.90
2019-02-28T10:24:19.703Z,39.09
2019-02-28T10:25:19.536Z,38.20
2019-02-28T10:26:19.521Z,35.79
2019-02-28T10:27:19.502Z,37.70
2019-02-28T10:28:19.509Z,34.70
2019-02-28T10:29:19.509Z,37.79
2019-02-28T10:30:30.529Z,36.09
2019-02-28T10:31:22.912Z,35.20
2019-02-28T10:32:20.451Z,38.40
2019-02-28T10:33:19.438Z,37.00
2019-02-28T10:34:19.426Z,38.00
2019-02-28T10:35:19.420Z,35.79
2019-02-28T10:36:19.408Z,35.20
2019-02-28T10:37:22.849Z,37.59
2019-02-28T10:38:19.472Z,36.90
2019-02-28T10:39:19.388Z,43.20
2019-02-28T10:40:19.361Z,39.59
2019-02-28T10:41:19.363Z,34.90
2019-02-28T10:42:19.345Z,39.50
2019-02-28T10:43:19.329Z,37.79
2019-02-28T10:44:19.316Z,36.40
2019-02-28T10:45:19.305Z,35.90
2019-02-28T10:46:20.263Z,33.50
2019-02-28T10:47:19.393Z,34.20
2019-02-28T10:48:19.389Z,32.59
2019-02-28T10:49:21.119Z,35.50
2019-02-28T10:50:19.386Z,35.79
2019-02-28T10:51:19.247Z,34.79
2019-02-28T10:52:19.266Z,35.90
2019-02-28T10:53:19.224Z,34.09
2019-02-28T10:54:19.234Z,33.40
2019-02-28T10:55:22.201Z,33.50
2019-02-28T10:56:19.188Z,34.20
2019-02-28T11:06:59.310Z,35.20
2019-02-28T11:07:56.672Z,35.50
2019-02-28T11:08:57.410Z,36.70
2019-02-28T11:09:58.741Z,34.20
2019-02-28T11:10:56.635Z,32.70
2019-02-28T11:11:56.590Z,33.29
2019-02-28T11:12:57.106Z,33.70
2019-02-28T11:13:57.602Z,32.79
2019-02-28T11:14:56.605Z,33.09
2019-02-28T11:15:56.579Z,35.09
2019-02-28T11:16:59.375Z,34.00
2019-02-28T11:17:56.513Z,34.20
2019-02-28T11:18:56.542Z,32.79
2019-02-28T11:19:56.519Z,32.40
2019-02-28T11:20:58.097Z,32.79
2019-02-28T11:21:56.504Z,32.29
2019-02-28T11:22:56.452Z,31.29
2019-02-28T11:23:56.441Z,29.00
2019-02-28T11:24:57.319Z,28.50
2019-02-28T11:25:56.466Z,31.50
2019-02-28T11:26:56.436Z,29.89
2019-02-28T11:27:56.421Z,29.89
2019-02-28T11:28:56.425Z,32.40
2019-02-28T11:29:56.433Z,27.79
2019-02-28T11:30:56.380Z,29.10
2019-02-28T11:31:56.350Z,29.10
2019-02-28T11:32:56.345Z,29.00
2019-02-28T11:33:56.356Z,29.20
2019-02-28T11:34:56.329Z,28.29
2019-02-28T11:35:58.826Z,32.00
2019-02-28T11:36:56.299Z,28.70
2019-02-28T11:37:56.293Z,29.00
2019-02-28T11:38:56.306Z,28.10
2019-02-28T11:39:56.267Z,29.29
2019-02-28T11:40:57.498Z,30.10
2019-02-28T11:41:56.339Z,33.50
2019-02-28T11:42:56.243Z,26.89
2019-02-28T11:43:56.277Z,26.10
2019-02-28T11:44:56.418Z,28.10
2019-02-28T11:45:56.514Z,26.89
2019-02-28T11:46:56.198Z,27.89
2019-02-28T11:47:56.202Z,27.00
2019-02-28T11:48:56.214Z,25.10
2019-02-28T11:49:56.141Z,27.60
2019-02-28T11:50:56.171Z,26.50
2019-02-28T11:51:56.159Z,25.39
2019-02-28T11:53:04.856Z,28.00
2019-02-28T11:54:25.709Z,27.20
2019-02-28T11:55:27.096Z,26.79
2019-02-28T11:56:28.778Z,26.39
2019-02-28T11:57:25.606Z,27.39
2019-02-28T11:58:25.616Z,25.10
2019-02-28T11:59:25.589Z,28.60
2019-02-28T12:00:26.285Z,27.00
2019-02-28T12:01:25.557Z,26.70
2019-02-28T12:02:25.548Z,27.50
2019-02-28T12:03:25.514Z,25.70
2019-02-28T12:04:25.502Z,29.20
2019-02-28T12:05:25.560Z,25.89
2019-02-28T12:06:26.299Z,29.10
2019-02-28T12:07:25.552Z,27.50
2019-02-28T12:08:25.500Z,26.20
2019-02-28T12:09:25.455Z,25.70
2019-02-28T12:10:26.927Z,28.39
2019-02-28T12:11:25.430Z,26.79
2019-02-28T12:12:25.499Z,28.29
2019-02-28T12:13:25.430Z,27.79
2019-02-28T12:14:26.463Z,31.29
2019-02-28T12:15:25.381Z,29.20
2019-02-28T12:16:25.393Z,26.39
2019-02-28T12:17:25.540Z,30.10
2019-02-28T12:18:26.202Z,27.60
2019-02-28T12:19:25.379Z,28.39
2019-02-28T12:20:26.569Z,28.60
2019-02-28T12:21:25.314Z,28.00
2019-02-28T12:22:25.311Z,27.39
2019-02-28T12:23:25.401Z,30.50
2019-02-28T12:24:25.319Z,30.20
2019-02-28T12:25:25.346Z,31.20
2019-02-28T12:26:25.298Z,28.50
2019-02-28T12:27:27.397Z,30.00
2019-02-28T12:28:25.238Z,33.00
2019-02-28T12:29:25.242Z,27.89
2019-02-28T12:30:25.979Z,29.79
2019-02-28T12:31:25.205Z,28.70
2019-02-28T12:32:25.212Z,30.50
2019-02-28T12:33:25.184Z,30.70
2019-02-28T12:34:27.964Z,30.60
2019-02-28T12:35:25.306Z,30.50
2019-02-28T12:36:25.159Z,31.10
2019-02-28T12:37:25.587Z,29.89
2019-02-28T12:38:28.283Z,32.79
2019-02-28T12:39:25.125Z,35.09
2019-02-28T12:40:25.194Z,30.60
2019-02-28T12:41:26.034Z,30.60
2019-02-28T12:42:25.476Z,32.09
2019-02-28T12:43:25.162Z,30.10
2019-02-28T12:44:25.075Z,29.60
2019-02-28T12:45:25.169Z,32.50
2019-02-28T12:46:25.045Z,29.60
2019-02-28T12:47:25.048Z,35.59
2019-02-28T12:48:27.022Z,33.09
2019-02-28T12:49:27.052Z,32.50
2019-02-28T12:50:25.263Z,34.50
2019-02-28T12:51:24.994Z,33.00
2019-02-28T12:52:25.007Z,32.90
2019-02-28T12:53:26.128Z,33.59
2019-02-28T12:54:26.044Z,32.40
2019-02-28T12:55:24.991Z,35.50
2019-02-28T12:56:24.965Z,34.00
2019-02-28T12:57:24.940Z,34.29
2019-02-28T12:58:24.916Z,35.29
2019-02-28T12:59:24.920Z,34.79
2019-02-28T13:00:24.915Z,37.50
2019-02-28T13:01:24.951Z,36.09
2019-02-28T13:02:24.884Z,37.50
2019-02-28T13:03:24.893Z,36.20
2019-02-28T13:04:24.964Z,37.50
2019-02-28T13:05:24.853Z,38.90
2019-02-28T13:06:25.215Z,41.70
2019-02-28T13:07:24.841Z,35.59
2019-02-28T13:08:24.878Z,42.79